Judi M. — WCX8376 — position and weather

sailwx.info

Track history (hours):
 
Tides and Currents Weather Stations Pressure Air Temp Water Temp Dewpoint Dewpoint Depression Visibility Wind Speed Wind Dir Waves Ship Positions

Judi M.

More information available from US FCC via Universal Licensing System and Coast Guard Vessel Documentation Center.

Last reported at 2014-Jul-22 21:50 UTC. Time now 2014-Jul-23 11:27 UTC.
Position N 47°34' W 122°22'.

Length 29 m; draft 4 m.

Type: Tow > 200 m length. MMSI: 366740920.

Date/timePositionNaut miles runAvg speedWind from/ knotsBaromVisibWave heightAir tempDewpointWater temp
2014-Jul-22 21:50N 47°34' W 122°22'0 0.7
2014-Jul-22 21:33N 47°35' W 122°22'0 3.8
2014-Jul-22 21:30N 47°35' W 122°22'2 1.7
2014-Jul-22 20:33N 47°36' W 122°23'0 3.2
2014-Jul-22 20:30N 47°36' W 122°23'6 6.2
2014-Jul-22 19:33N 47°41' W 122°28'0 7.1
2014-Jul-22 19:30N 47°41' W 122°28'7 7.8
2014-Jul-22 18:34N 47°49' W 122°28'1 8.0
2014-Jul-22 18:30N 47°49' W 122°28'7 7.3
2014-Jul-22 17:34N 47°56' W 122°31'7 7.1
2014-Jul-22 16:34N 48°01' W 122°39'7 6.8
2014-Jul-22 15:33N 48°07' W 122°41'6 5.7
2014-Jul-22 14:33N 48°11' W 122°48'8 5.7
2014-Jul-22 13:12N 48°19' W 122°47'5 8.4
2014-Jul-22 12:33N 48°24' W 122°45'10 9.7
2014-Jul-22 11:33N 48°33' W 122°45'8 8.4
2014-Jul-22 10:34N 48°42' W 122°44'7 7.5
2014-Jul-22 09:34N 48°47' W 122°52'8 7.7
2014-Jul-22 08:34N 48°51' W 123°02'8 7.5
2014-Jul-22 07:34N 48°55' W 123°12'7 7.0
2014-Jul-22 06:33N 49°00' W 123°19'7 7.0
2014-Jul-22 05:34N 49°06' W 123°27'7 6.8
2014-Jul-22 04:33N 49°12' W 123°29'7 6.9
2014-Jul-22 03:34N 49°19' W 123°28'7 6.6
2014-Jul-22 02:33N 49°26' W 123°27'6 5.6
2014-Jul-22 01:33N 49°31' W 123°29'0 0.0
2014-Jul-21 23:33N 49°31' W 123°29'0 0.0
2014-Jul-21 22:32N 49°31' W 123°29'0 0.0
2014-Jul-21 21:34N 49°31' W 123°29'0 0.0
2014-Jul-21 20:33N 49°31' W 123°29'0 0.0
2014-Jul-21 20:18N 49°31' W 123°29'0 0.0
2014-Jul-21 18:29N 49°31' W 123°29'0 0.0
2014-Jul-21 17:13N 49°31' W 123°29'0 0.0
2014-Jul-21 14:33N 49°31' W 123°29'3 3.4
2014-Jul-21 13:34N 49°28' W 123°28'5 5.0
2014-Jul-21 12:33N 49°23' W 123°26'6 5.6
2014-Jul-21 11:33N 49°18' W 123°27'6 6.4
2014-Jul-21 10:34N 49°11' W 123°26'8 7.8
2014-Jul-21 09:33N 49°04' W 123°20'8 7.5
2014-Jul-21 08:34N 48°59' W 123°12'7 7.4
2014-Jul-21 07:34N 48°54' W 123°04'8 8.1
2014-Jul-21 06:34N 48°49' W 122°54'8 8.4
2014-Jul-21 05:34N 48°44' W 122°44'7 7.2
2014-Jul-21 04:34N 48°37' W 122°45'7 7.5
2014-Jul-21 03:34N 48°29' W 122°44'8 7.9
2014-Jul-21 02:31N 48°21' W 122°45'16 7.6
2014-Jul-21 00:25N 48°06' W 122°38'8 9.9
2014-Jul-20 23:36N 47°58' W 122°34'111.2
2014-Jul-20 23:33N 47°58' W 122°34'0 8.8
2014-Jul-20 23:31N 47°58' W 122°33'8 8.4
2014-Jul-20 22:34N 47°51' W 122°27'0 7.5
2014-Jul-20 22:31N 47°50' W 122°27'8 8.1
2014-Jul-20 21:34N 47°43' W 122°26'0 8.0
2014-Jul-20 21:31N 47°42' W 122°26'7 7.4
2014-Jul-20 20:33N 47°36' W 122°22'1 5.6
2014-Jul-20 20:19N 47°34' W 122°22'0 0.1
2014-Jul-20 19:33N 47°34' W 122°22'0 0.0
2014-Jul-20 19:29N 47°34' W 122°22'0 0.0
2014-Jul-20 18:33N 47°34' W 122°22'0 0.0
2014-Jul-20 18:29N 47°34' W 122°22'0 0.0
2014-Jul-20 17:33N 47°34' W 122°22'0 0.0
2014-Jul-20 17:29N 47°34' W 122°22'0 0.0
2014-Jul-20 16:22N 47°34' W 122°22'0 0.0
2014-Jul-20 16:17N 47°34' W 122°22'0 0.0
2014-Jul-20 15:33N 47°34' W 122°22'0 0.0
2014-Jul-20 15:32N 47°34' W 122°22'0 0.0
2014-Jul-20 14:33N 47°34' W 122°22'0 0.0
2014-Jul-20 14:32N 47°34' W 122°22'0 0.0
2014-Jul-20 13:31N 47°34' W 122°22'0 0.0
2014-Jul-20 13:06N 47°34' W 122°22'0 0.0
2014-Jul-20 12:33N 47°34' W 122°22'0 0.0
2014-Jul-20 12:31N 47°34' W 122°22'0 0.0
2014-Jul-20 11:33N 47°34' W 122°22'0 0.0
2014-Jul-20 11:30N 47°34' W 122°22'0 0.0
2014-Jul-20 10:33N 47°34' W 122°22'0 0.0
2014-Jul-20 10:30N 47°34' W 122°22'0 0.0
2014-Jul-20 09:25N 47°34' W 122°22'0 0.0
2014-Jul-20 09:23N 47°34' W 122°22'0 0.0
2014-Jul-20 08:33N 47°34' W 122°22'0 0.0
2014-Jul-20 08:33N 47°34' W 122°22'0 0.0
2014-Jul-20 07:33N 47°34' W 122°22'0 0.0
2014-Jul-20 07:33N 47°34' W 122°22'0 0.0
2014-Jul-20 06:33N 47°34' W 122°22'0 0.0
2014-Jul-20 06:33N 47°34' W 122°22'1 1.9
2014-Jul-20 05:53N 47°36' W 122°22'1 2.3
2014-Jul-20 05:33N 47°36' W 122°23'6 5.8
2014-Jul-20 04:33N 47°41' W 122°28'0 5.8
2014-Jul-20 04:32N 47°41' W 122°28'7 6.7
2014-Jul-20 03:34N 47°47' W 122°27'0 5.0
2014-Jul-20 03:33N 47°47' W 122°27'7 6.8
2014-Jul-20 02:34N 47°54' W 122°29'0 6.1
2014-Jul-20 02:32N 47°54' W 122°29'6 6.5
2014-Jul-20 01:33N 47°59' W 122°36'10 0.8
2014-Jul-19 12:29N 48°06' W 122°48'3 3.4
2014-Jul-19 11:31N 48°07' W 122°43'6 6.5
2014-Jul-19 10:34N 48°02' W 122°37'210.7
2014-Jul-19 10:20N 47°60' W 122°36'810.1
2014-Jul-19 09:34N 47°54' W 122°28'0 9.4
2014-Jul-19 09:31N 47°53' W 122°28'9 9.2
2014-Jul-19 08:33N 47°45' W 122°26'0 8.7
2014-Jul-19 08:31N 47°44' W 122°26'7 7.3
2014-Jul-19 07:33N 47°37' W 122°24'0 6.8
2014-Jul-19 07:31N 47°37' W 122°24'3 3.3
2014-Jul-19 06:33N 47°34' W 122°22'0 0.0
2014-Jul-19 06:30N 47°34' W 122°22'0 0.0
2014-Jul-19 05:51N 47°34' W 122°22'0 0.0
2014-Jul-19 05:33N 47°34' W 122°22'0 0.0
2014-Jul-19 04:34N 47°34' W 122°22'0 0.0
2014-Jul-19 04:30N 47°34' W 122°22'0 0.0
2014-Jul-19 03:33N 47°34' W 122°22'0 0.0
2014-Jul-19 03:30N 47°34' W 122°22'0 0.0
2014-Jul-19 02:33N 47°34' W 122°22'0 0.0
2014-Jul-19 02:30N 47°34' W 122°22'0 0.0
2014-Jul-19 01:33N 47°34' W 122°22'0 0.0
2014-Jul-19 01:30N 47°34' W 122°22'0 0.0
2014-Jul-19 00:33N 47°34' W 122°22'0 0.0
2014-Jul-19 00:30N 47°34' W 122°22'0 0.0
2014-Jul-18 23:33N 47°34' W 122°22'0 0.0
2014-Jul-18 23:30N 47°34' W 122°22'0 0.0
2014-Jul-18 22:31N 47°34' W 122°22'0 0.0
2014-Jul-18 22:30N 47°34' W 122°22'0 0.0
2014-Jul-18 21:33N 47°34' W 122°22'0 0.0
2014-Jul-18 21:29N 47°34' W 122°22'0 0.0
2014-Jul-18 20:28N 47°34' W 122°22'0 0.0
2014-Jul-18 20:17N 47°34' W 122°22'0 0.0
2014-Jul-18 19:32N 47°34' W 122°22'0 0.0
2014-Jul-18 19:32N 47°34' W 122°22'0 0.0
2014-Jul-18 18:33N 47°34' W 122°22'0 0.0
2014-Jul-18 18:33N 47°34' W 122°22'0 0.0
2014-Jul-18 17:34N 47°34' W 122°22'0 0.0
2014-Jul-18 17:33N 47°34' W 122°22'0 0.0
2014-Jul-18 16:34N 47°34' W 122°22'0 0.0
2014-Jul-18 16:33N 47°34' W 122°22'0 0.0
2014-Jul-18 15:33N 47°34' W 122°22'0 0.0
2014-Jul-18 15:32N 47°34' W 122°22'0 0.0
2014-Jul-18 14:34N 47°34' W 122°22'0 0.0
2014-Jul-18 14:32N 47°34' W 122°22'0 0.0
2014-Jul-18 13:31N 47°34' W 122°22'0 0.0
2014-Jul-18 13:31N 47°34' W 122°22'0 0.0
2014-Jul-18 12:33N 47°34' W 122°22'0 0.0
2014-Jul-18 12:32N 47°34' W 122°22'0 0.0
2014-Jul-18 11:31N 47°34' W 122°22'0 0.0
2014-Jul-18 10:31N 47°34' W 122°22'0 0.0
2014-Jul-18 10:29N 47°34' W 122°22'0 0.0
2014-Jul-18 09:34N 47°34' W 122°22'0 0.0
2014-Jul-18 09:29N 47°34' W 122°22'0 0.0
2014-Jul-18 08:34N 47°34' W 122°22'0 0.0
2014-Jul-18 08:28N 47°34' W 122°22'0 0.0
2014-Jul-18 07:27N 47°34' W 122°22'0 0.0
2014-Jul-18 07:11N 47°34' W 122°22'0 0.0
2014-Jul-18 06:33N 47°34' W 122°22'0 0.0
2014-Jul-18 06:32N 47°34' W 122°22'0 0.0
2014-Jul-18 05:52N 47°34' W 122°22'0 0.0
2014-Jul-18 05:33N 47°34' W 122°22'0 0.0
2014-Jul-18 04:33N 47°34' W 122°22'0 0.0
2014-Jul-18 04:21N 47°34' W 122°22'0 0.0
2014-Jul-18 03:33N 47°34' W 122°22'0 0.0
2014-Jul-18 03:32N 47°34' W 122°22'0 0.0
2014-Jul-18 02:33N 47°34' W 122°22'0 0.0
2014-Jul-18 02:31N 47°34' W 122°22'0 0.0
2014-Jul-18 01:33N 47°34' W 122°22'0 0.0
2014-Jul-18 01:31N 47°34' W 122°22'0 0.0
2014-Jul-18 00:33N 47°34' W 122°22'0 0.0
2014-Jul-18 00:31N 47°34' W 122°22'0 0.0
2014-Jul-17 23:33N 47°34' W 122°22'0 0.0
2014-Jul-17 23:31N 47°34' W 122°22'0 0.0
2014-Jul-17 22:33N 47°34' W 122°22'0 0.0
2014-Jul-17 22:31N 47°34' W 122°22'0 0.0
2014-Jul-17 21:34N 47°34' W 122°22'0 0.0
2014-Jul-17 21:31N 47°34' W 122°22'0 0.0
2014-Jul-17 20:34N 47°34' W 122°22'0 0.0
2014-Jul-17 20:31N 47°34' W 122°22'0 0.0
2014-Jul-17 19:34N 47°34' W 122°22'0 0.0
2014-Jul-17 19:30N 47°34' W 122°22'0 0.0
2014-Jul-17 18:33N 47°34' W 122°22'0 0.0
2014-Jul-17 18:24N 47°34' W 122°22'0 0.0
2014-Jul-17 17:33N 47°34' W 122°22'0 0.0
2014-Jul-17 17:30N 47°34' W 122°22'0 0.0
2014-Jul-17 16:33N 47°34' W 122°22'0 0.0
2014-Jul-17 16:30N 47°34' W 122°22'0 0.0
2014-Jul-17 15:34N 47°34' W 122°22'0 0.0
2014-Jul-17 15:30N 47°34' W 122°22'0 0.0
2014-Jul-17 14:33N 47°34' W 122°22'0 0.0
2014-Jul-17 14:29N 47°34' W 122°22'0 0.0
2014-Jul-17 13:34N 47°34' W 122°22'0 0.0
2014-Jul-17 13:29N 47°34' W 122°22'0 0.0
2014-Jul-17 12:33N 47°34' W 122°22'0 0.0
2014-Jul-17 12:29N 47°34' W 122°22'0 0.0
2014-Jul-17 11:33N 47°34' W 122°22'0 0.0
2014-Jul-17 11:29N 47°34' W 122°22'0 0.0
2014-Jul-17 10:33N 47°34' W 122°22'0 0.0
2014-Jul-17 10:29N 47°34' W 122°22'0 0.0
2014-Jul-17 09:34N 47°34' W 122°22'0 0.0
2014-Jul-17 09:29N 47°34' W 122°22'0 0.0
2014-Jul-17 08:33N 47°34' W 122°22'0 0.0
2014-Jul-17 08:29N 47°34' W 122°22'0 0.0
2014-Jul-17 07:34N 47°34' W 122°22'0 0.0
2014-Jul-17 07:24N 47°34' W 122°22'0 0.0
2014-Jul-17 06:34N 47°34' W 122°22'0 0.0
2014-Jul-17 06:29N 47°34' W 122°22'0 0.0
2014-Jul-17 05:54N 47°34' W 122°22'0 0.0
2014-Jul-17 05:33N 47°34' W 122°22'0 0.0
2014-Jul-17 04:34N 47°34' W 122°22'0 0.0
2014-Jul-17 04:33N 47°34' W 122°22'0 0.0
2014-Jul-17 03:34N 47°34' W 122°22'0 0.0
2014-Jul-17 03:33N 47°34' W 122°22'0 0.0
2014-Jul-17 02:33N 47°34' W 122°22'0 0.0
2014-Jul-17 02:33N 47°34' W 122°22'0 0.0
2014-Jul-17 01:33N 47°34' W 122°22'0 0.0
2014-Jul-17 01:33N 47°34' W 122°22'0 0.0
2014-Jul-17 00:33N 47°34' W 122°22'0 0.0
2014-Jul-17 00:33N 47°34' W 122°22'0 0.0
2014-Jul-16 23:32N 47°34' W 122°22'0 0.0
2014-Jul-16 23:28N 47°34' W 122°22'0 0.0
2014-Jul-16 22:33N 47°34' W 122°22'0 0.0
2014-Jul-16 22:33N 47°34' W 122°22'0 0.0
2014-Jul-16 21:33N 47°34' W 122°22'0 0.0
2014-Jul-16 21:33N 47°34' W 122°22'0 0.0
2014-Jul-16 20:33N 47°34' W 122°22'0 0.0
2014-Jul-16 20:33N 47°34' W 122°22'0 0.0
2014-Jul-16 19:33N 47°34' W 122°22'0 0.0
2014-Jul-16 19:33N 47°34' W 122°22'0 0.0
2014-Jul-16 18:31N 47°34' W 122°22'0 0.0
2014-Jul-16 18:28N 47°34' W 122°22'0 0.0
2014-Jul-16 17:33N 47°34' W 122°22'0 0.0
2014-Jul-16 17:32N 47°34' W 122°22'0 0.0
2014-Jul-16 16:33N 47°34' W 122°22'0 0.0
2014-Jul-16 16:32N 47°34' W 122°22'0 0.0
2014-Jul-16 15:33N 47°34' W 122°22'0 0.0
2014-Jul-16 15:32N 47°34' W 122°22'0 0.0
2014-Jul-16 14:33N 47°34' W 122°22'0 0.0
2014-Jul-16 14:32N 47°34' W 122°22'2 2.0
2014-Jul-16 13:33N 47°36' W 122°23'0 1.3
2014-Jul-16 13:32N 47°36' W 122°23'6 6.5
2014-Jul-16 12:33N 47°42' W 122°28'0 7.7
2014-Jul-16 12:32N 47°42' W 122°28'7 7.5
2014-Jul-16 11:33N 47°49' W 122°28'0 6.0
2014-Jul-16 11:32N 47°49' W 122°28'7 7.1
2014-Jul-16 10:33N 47°56' W 122°32'6 6.3
2014-Jul-16 09:33N 48°00' W 122°38'7 6.1
2014-Jul-16 08:26N 48°07' W 122°41'5 5.1
2014-Jul-16 07:28N 48°10' W 122°47'5 5.2
2014-Jul-16 06:26N 48°11' W 122°55'6 6.7
2014-Jul-16 05:33N 48°12' W 123°04'6 6.4
2014-Jul-16 04:33N 48°10' W 123°13'7 6.6
2014-Jul-16 03:33N 48°08' W 123°22'3 3.5
2014-Jul-16 02:33N 48°08' W 123°28'0 0.0
2014-Jul-16 01:33N 48°08' W 123°28'0 0.0
2014-Jul-16 00:33N 48°08' W 123°28'0 0.0
2014-Jul-15 23:33N 48°08' W 123°28'0 0.0
2014-Jul-15 22:33N 48°08' W 123°28'0 0.0
2014-Jul-15 21:33N 48°08' W 123°28'0 0.0
2014-Jul-15 20:33N 48°08' W 123°28'0 0.0
2014-Jul-15 19:33N 48°08' W 123°28'0 0.0
2014-Jul-15 18:33N 48°08' W 123°28'0 0.0
2014-Jul-15 17:33N 48°08' W 123°28'0 0.0
2014-Jul-15 16:33N 48°08' W 123°28'0 0.0
2014-Jul-15 15:33N 48°08' W 123°28'0 0.0
2014-Jul-15 14:33N 48°08' W 123°28'2 2.2
2014-Jul-15 13:33N 48°08' W 123°24'7 7.0
2014-Jul-15 12:33N 48°10' W 123°14'7 6.7
2014-Jul-15 11:33N 48°13' W 123°05'7 6.9
2014-Jul-15 10:33N 48°12' W 122°55'9 6.9
2014-Jul-15 09:19N 48°09' W 122°43'7 7.9
2014-Jul-15 08:30N 48°04' W 122°38'9 9.5
2014-Jul-15 07:33N 47°56' W 122°30'6 9.2
2014-Jul-15 06:54N 47°51' W 122°27'3 9.4
2014-Jul-15 06:33N 47°47' W 122°26'1 8.8
2014-Jul-15 06:29N 47°47' W 122°26'8 9.0
2014-Jul-15 05:33N 47°39' W 122°27'1 7.9
2014-Jul-15 05:29N 47°38' W 122°26'5 5.1
2014-Jul-15 04:33N 47°34' W 122°22'0 0.0
2014-Jul-14 06:53N 47°34' W 122°22'0 0.1
2014-Jul-14 06:33N 47°34' W 122°22'0 0.0
2014-Jul-14 06:33N 47°34' W 122°22'1 2.7
2014-Jul-14 06:03N 47°36' W 122°22'3 5.3
2014-Jul-14 05:33N 47°37' W 122°25'6 6.4
2014-Jul-14 04:34N 47°43' W 122°28'0 4.2
2014-Jul-14 04:33N 47°43' W 122°28'7 7.1
2014-Jul-14 03:34N 47°50' W 122°28'0 5.2
2014-Jul-14 03:33N 47°50' W 122°28'6 6.4
2014-Jul-14 02:33N 47°56' W 122°32'8 7.7
2014-Jul-14 01:28N 48°03' W 122°39'6 2.1
2014-Jul-13 22:33N 48°06' W 122°48'0 0.0
2014-Jul-13 21:34N 48°06' W 122°48'0 0.0
2014-Jul-13 20:31N 48°06' W 122°48'0 0.0
2014-Jul-13 19:31N 48°06' W 122°48'0 0.0
2014-Jul-13 18:08N 48°06' W 122°48'0 0.0
2014-Jul-13 12:33N 48°05' W 122°47'6 5.4
2014-Jul-13 11:30N 48°05' W 122°39'7 7.3
2014-Jul-13 10:32N 47°59' W 122°35'1 6.8
2014-Jul-13 10:26N 47°58' W 122°34'6 6.9
2014-Jul-13 09:33N 47°54' W 122°28'0 6.9
2014-Jul-13 09:31N 47°53' W 122°28'8 8.0
2014-Jul-13 08:34N 47°46' W 122°26'0 7.2
2014-Jul-13 08:31N 47°46' W 122°26'7 7.7
2014-Jul-13 07:33N 47°38' W 122°27'0 7.4
2014-Jul-13 07:31N 47°38' W 122°26'  
Track history (hours):
 
Tides and Currents Weather Stations Pressure Air Temp Water Temp Dewpoint Dewpoint Depression Visibility Wind Speed Wind Dir Waves Ship Positions

Judi M.

More information available from US FCC via Universal Licensing System and Coast Guard Vessel Documentation Center.

Last reported at 2014-Jul-22 21:50 UTC. Time now 2014-Jul-23 11:27 UTC.
Position N 47°34' W 122°22'.

Length 29 m; draft 4 m.

Type: Tow > 200 m length. MMSI: 366740920.

Date/timePositionNaut miles runAvg speedWind from/ knotsBaromVisibWave heightAir tempDewpointWater temp
2014-Jul-22 21:50N 47°34' W 122°22'0 0.7
2014-Jul-22 21:33N 47°35' W 122°22'0 3.8
2014-Jul-22 21:30N 47°35' W 122°22'2 1.7
2014-Jul-22 20:33N 47°36' W 122°23'0 3.2
2014-Jul-22 20:30N 47°36' W 122°23'6 6.2
2014-Jul-22 19:33N 47°41' W 122°28'0 7.1
2014-Jul-22 19:30N 47°41' W 122°28'7 7.8
2014-Jul-22 18:34N 47°49' W 122°28'1 8.0
2014-Jul-22 18:30N 47°49' W 122°28'7 7.3
2014-Jul-22 17:34N 47°56' W 122°31'7 7.1
2014-Jul-22 16:34N 48°01' W 122°39'7 6.8
2014-Jul-22 15:33N 48°07' W 122°41'6 5.7
2014-Jul-22 14:33N 48°11' W 122°48'8 5.7
2014-Jul-22 13:12N 48°19' W 122°47'5 8.4
2014-Jul-22 12:33N 48°24' W 122°45'10 9.7
2014-Jul-22 11:33N 48°33' W 122°45'8 8.4
2014-Jul-22 10:34N 48°42' W 122°44'7 7.5
2014-Jul-22 09:34N 48°47' W 122°52'8 7.7
2014-Jul-22 08:34N 48°51' W 123°02'8 7.5
2014-Jul-22 07:34N 48°55' W 123°12'7 7.0
2014-Jul-22 06:33N 49°00' W 123°19'7 7.0
2014-Jul-22 05:34N 49°06' W 123°27'7 6.8
2014-Jul-22 04:33N 49°12' W 123°29'7 6.9
2014-Jul-22 03:34N 49°19' W 123°28'7 6.6
2014-Jul-22 02:33N 49°26' W 123°27'6 5.6
2014-Jul-22 01:33N 49°31' W 123°29'0 0.0
2014-Jul-21 23:33N 49°31' W 123°29'0 0.0
2014-Jul-21 22:32N 49°31' W 123°29'0 0.0
2014-Jul-21 21:34N 49°31' W 123°29'0 0.0
2014-Jul-21 20:33N 49°31' W 123°29'0 0.0
2014-Jul-21 20:18N 49°31' W 123°29'0 0.0
2014-Jul-21 18:29N 49°31' W 123°29'0 0.0
2014-Jul-21 17:13N 49°31' W 123°29'0 0.0
2014-Jul-21 14:33N 49°31' W 123°29'3 3.4
2014-Jul-21 13:34N 49°28' W 123°28'5 5.0
2014-Jul-21 12:33N 49°23' W 123°26'6 5.6
2014-Jul-21 11:33N 49°18' W 123°27'6 6.4
2014-Jul-21 10:34N 49°11' W 123°26'8 7.8
2014-Jul-21 09:33N 49°04' W 123°20'8 7.5
2014-Jul-21 08:34N 48°59' W 123°12'7 7.4
2014-Jul-21 07:34N 48°54' W 123°04'8 8.1
2014-Jul-21 06:34N 48°49' W 122°54'8 8.4
2014-Jul-21 05:34N 48°44' W 122°44'7 7.2
2014-Jul-21 04:34N 48°37' W 122°45'7 7.5
2014-Jul-21 03:34N 48°29' W 122°44'8 7.9
2014-Jul-21 02:31N 48°21' W 122°45'16 7.6
2014-Jul-21 00:25N 48°06' W 122°38'8 9.9
2014-Jul-20 23:36N 47°58' W 122°34'111.2
2014-Jul-20 23:33N 47°58' W 122°34'0 8.8
2014-Jul-20 23:31N 47°58' W 122°33'8 8.4
2014-Jul-20 22:34N 47°51' W 122°27'0 7.5
2014-Jul-20 22:31N 47°50' W 122°27'8 8.1
2014-Jul-20 21:34N 47°43' W 122°26'0 8.0
2014-Jul-20 21:31N 47°42' W 122°26'7 7.4
2014-Jul-20 20:33N 47°36' W 122°22'1 5.6
2014-Jul-20 20:19N 47°34' W 122°22'0 0.1
2014-Jul-20 19:33N 47°34' W 122°22'0 0.0
2014-Jul-20 19:29N 47°34' W 122°22'0 0.0
2014-Jul-20 18:33N 47°34' W 122°22'0 0.0
2014-Jul-20 18:29N 47°34' W 122°22'0 0.0
2014-Jul-20 17:33N 47°34' W 122°22'0 0.0
2014-Jul-20 17:29N 47°34' W 122°22'0 0.0
2014-Jul-20 16:22N 47°34' W 122°22'0 0.0
2014-Jul-20 16:17N 47°34' W 122°22'0 0.0
2014-Jul-20 15:33N 47°34' W 122°22'0 0.0
2014-Jul-20 15:32N 47°34' W 122°22'0 0.0
2014-Jul-20 14:33N 47°34' W 122°22'0 0.0
2014-Jul-20 14:32N 47°34' W 122°22'0 0.0
2014-Jul-20 13:31N 47°34' W 122°22'0 0.0
2014-Jul-20 13:06N 47°34' W 122°22'0 0.0
2014-Jul-20 12:33N 47°34' W 122°22'0 0.0
2014-Jul-20 12:31N 47°34' W 122°22'0 0.0
2014-Jul-20 11:33N 47°34' W 122°22'0 0.0
2014-Jul-20 11:30N 47°34' W 122°22'0 0.0
2014-Jul-20 10:33N 47°34' W 122°22'0 0.0
2014-Jul-20 10:30N 47°34' W 122°22'0 0.0
2014-Jul-20 09:25N 47°34' W 122°22'0 0.0
2014-Jul-20 09:23N 47°34' W 122°22'0 0.0
2014-Jul-20 08:33N 47°34' W 122°22'0 0.0
2014-Jul-20 08:33N 47°34' W 122°22'0 0.0
2014-Jul-20 07:33N 47°34' W 122°22'0 0.0
2014-Jul-20 07:33N 47°34' W 122°22'0 0.0
2014-Jul-20 06:33N 47°34' W 122°22'0 0.0
2014-Jul-20 06:33N 47°34' W 122°22'1 1.9
2014-Jul-20 05:53N 47°36' W 122°22'1 2.3
2014-Jul-20 05:33N 47°36' W 122°23'6 5.8
2014-Jul-20 04:33N 47°41' W 122°28'0 5.8
2014-Jul-20 04:32N 47°41' W 122°28'7 6.7
2014-Jul-20 03:34N 47°47' W 122°27'0 5.0
2014-Jul-20 03:33N 47°47' W 122°27'7 6.8
2014-Jul-20 02:34N 47°54' W 122°29'0 6.1
2014-Jul-20 02:32N 47°54' W 122°29'6 6.5
2014-Jul-20 01:33N 47°59' W 122°36'10 0.8
2014-Jul-19 12:29N 48°06' W 122°48'3 3.4
2014-Jul-19 11:31N 48°07' W 122°43'6 6.5
2014-Jul-19 10:34N 48°02' W 122°37'210.7
2014-Jul-19 10:20N 47°60' W 122°36'810.1
2014-Jul-19 09:34N 47°54' W 122°28'0 9.4
2014-Jul-19 09:31N 47°53' W 122°28'9 9.2
2014-Jul-19 08:33N 47°45' W 122°26'0 8.7
2014-Jul-19 08:31N 47°44' W 122°26'7 7.3
2014-Jul-19 07:33N 47°37' W 122°24'0 6.8
2014-Jul-19 07:31N 47°37' W 122°24'3 3.3
2014-Jul-19 06:33N 47°34' W 122°22'0 0.0
2014-Jul-19 06:30N 47°34' W 122°22'0 0.0
2014-Jul-19 05:51N 47°34' W 122°22'0 0.0
2014-Jul-19 05:33N 47°34' W 122°22'0 0.0
2014-Jul-19 04:34N 47°34' W 122°22'0 0.0
2014-Jul-19 04:30N 47°34' W 122°22'0 0.0
2014-Jul-19 03:33N 47°34' W 122°22'0 0.0
2014-Jul-19 03:30N 47°34' W 122°22'0 0.0
2014-Jul-19 02:33N 47°34' W 122°22'0 0.0
2014-Jul-19 02:30N 47°34' W 122°22'0 0.0
2014-Jul-19 01:33N 47°34' W 122°22'0 0.0
2014-Jul-19 01:30N 47°34' W 122°22'0 0.0
2014-Jul-19 00:33N 47°34' W 122°22'0 0.0
2014-Jul-19 00:30N 47°34' W 122°22'0 0.0
2014-Jul-18 23:33N 47°34' W 122°22'0 0.0
2014-Jul-18 23:30N 47°34' W 122°22'0 0.0
2014-Jul-18 22:31N 47°34' W 122°22'0 0.0
2014-Jul-18 22:30N 47°34' W 122°22'0 0.0
2014-Jul-18 21:33N 47°34' W 122°22'0 0.0
2014-Jul-18 21:29N 47°34' W 122°22'0 0.0
2014-Jul-18 20:28N 47°34' W 122°22'0 0.0
2014-Jul-18 20:17N 47°34' W 122°22'0 0.0
2014-Jul-18 19:32N 47°34' W 122°22'0 0.0
2014-Jul-18 19:32N 47°34' W 122°22'0 0.0
2014-Jul-18 18:33N 47°34' W 122°22'0 0.0
2014-Jul-18 18:33N 47°34' W 122°22'0 0.0
2014-Jul-18 17:34N 47°34' W 122°22'0 0.0
2014-Jul-18 17:33N 47°34' W 122°22'0 0.0
2014-Jul-18 16:34N 47°34' W 122°22'0 0.0
2014-Jul-18 16:33N 47°34' W 122°22'0 0.0
2014-Jul-18 15:33N 47°34' W 122°22'0 0.0
2014-Jul-18 15:32N 47°34' W 122°22'0 0.0
2014-Jul-18 14:34N 47°34' W 122°22'0 0.0
2014-Jul-18 14:32N 47°34' W 122°22'0 0.0
2014-Jul-18 13:31N 47°34' W 122°22'0 0.0
2014-Jul-18 13:31N 47°34' W 122°22'0 0.0
2014-Jul-18 12:33N 47°34' W 122°22'0 0.0
2014-Jul-18 12:32N 47°34' W 122°22'0 0.0
2014-Jul-18 11:31N 47°34' W 122°22'0 0.0
2014-Jul-18 10:31N 47°34' W 122°22'0 0.0
2014-Jul-18 10:29N 47°34' W 122°22'0 0.0
2014-Jul-18 09:34N 47°34' W 122°22'0 0.0
2014-Jul-18 09:29N 47°34' W 122°22'0 0.0
2014-Jul-18 08:34N 47°34' W 122°22'0 0.0
2014-Jul-18 08:28N 47°34' W 122°22'0 0.0
2014-Jul-18 07:27N 47°34' W 122°22'0 0.0
2014-Jul-18 07:11N 47°34' W 122°22'0 0.0
2014-Jul-18 06:33N 47°34' W 122°22'0 0.0
2014-Jul-18 06:32N 47°34' W 122°22'0 0.0
2014-Jul-18 05:52N 47°34' W 122°22'0 0.0
2014-Jul-18 05:33N 47°34' W 122°22'0 0.0
2014-Jul-18 04:33N 47°34' W 122°22'0 0.0
2014-Jul-18 04:21N 47°34' W 122°22'0 0.0
2014-Jul-18 03:33N 47°34' W 122°22'0 0.0
2014-Jul-18 03:32N 47°34' W 122°22'0 0.0
2014-Jul-18 02:33N 47°34' W 122°22'0 0.0
2014-Jul-18 02:31N 47°34' W 122°22'0 0.0
2014-Jul-18 01:33N 47°34' W 122°22'0 0.0
2014-Jul-18 01:31N 47°34' W 122°22'0 0.0
2014-Jul-18 00:33N 47°34' W 122°22'0 0.0
2014-Jul-18 00:31N 47°34' W 122°22'0 0.0
2014-Jul-17 23:33N 47°34' W 122°22'0 0.0
2014-Jul-17 23:31N 47°34' W 122°22'0 0.0
2014-Jul-17 22:33N 47°34' W 122°22'0 0.0
2014-Jul-17 22:31N 47°34' W 122°22'0 0.0
2014-Jul-17 21:34N 47°34' W 122°22'0 0.0
2014-Jul-17 21:31N 47°34' W 122°22'0 0.0
2014-Jul-17 20:34N 47°34' W 122°22'0 0.0
2014-Jul-17 20:31N 47°34' W 122°22'0 0.0
2014-Jul-17 19:34N 47°34' W 122°22'0 0.0
2014-Jul-17 19:30N 47°34' W 122°22'0 0.0
2014-Jul-17 18:33N 47°34' W 122°22'0 0.0
2014-Jul-17 18:24N 47°34' W 122°22'0 0.0
2014-Jul-17 17:33N 47°34' W 122°22'0 0.0
2014-Jul-17 17:30N 47°34' W 122°22'0 0.0
2014-Jul-17 16:33N 47°34' W 122°22'0 0.0
2014-Jul-17 16:30N 47°34' W 122°22'0 0.0
2014-Jul-17 15:34N 47°34' W 122°22'0 0.0
2014-Jul-17 15:30N 47°34' W 122°22'0 0.0
2014-Jul-17 14:33N 47°34' W 122°22'0 0.0
2014-Jul-17 14:29N 47°34' W 122°22'0 0.0
2014-Jul-17 13:34N 47°34' W 122°22'0 0.0
2014-Jul-17 13:29N 47°34' W 122°22'0 0.0
2014-Jul-17 12:33N 47°34' W 122°22'0 0.0
2014-Jul-17 12:29N 47°34' W 122°22'0 0.0
2014-Jul-17 11:33N 47°34' W 122°22'0 0.0
2014-Jul-17 11:29N 47°34' W 122°22'0 0.0
2014-Jul-17 10:33N 47°34' W 122°22'0 0.0
2014-Jul-17 10:29N 47°34' W 122°22'0 0.0
2014-Jul-17 09:34N 47°34' W 122°22'0 0.0
2014-Jul-17 09:29N 47°34' W 122°22'0 0.0
2014-Jul-17 08:33N 47°34' W 122°22'0 0.0
2014-Jul-17 08:29N 47°34' W 122°22'0 0.0
2014-Jul-17 07:34N 47°34' W 122°22'0 0.0
2014-Jul-17 07:24N 47°34' W 122°22'0 0.0
2014-Jul-17 06:34N 47°34' W 122°22'0 0.0
2014-Jul-17 06:29N 47°34' W 122°22'0 0.0
2014-Jul-17 05:54N 47°34' W 122°22'0 0.0
2014-Jul-17 05:33N 47°34' W 122°22'0 0.0
2014-Jul-17 04:34N 47°34' W 122°22'0 0.0
2014-Jul-17 04:33N 47°34' W 122°22'0 0.0
2014-Jul-17 03:34N 47°34' W 122°22'0 0.0
2014-Jul-17 03:33N 47°34' W 122°22'0 0.0
2014-Jul-17 02:33N 47°34' W 122°22'0 0.0
2014-Jul-17 02:33N 47°34' W 122°22'0 0.0
2014-Jul-17 01:33N 47°34' W 122°22'0 0.0
2014-Jul-17 01:33N 47°34' W 122°22'0 0.0
2014-Jul-17 00:33N 47°34' W 122°22'0 0.0
2014-Jul-17 00:33N 47°34' W 122°22'0 0.0
2014-Jul-16 23:32N 47°34' W 122°22'0 0.0
2014-Jul-16 23:28N 47°34' W 122°22'0 0.0
2014-Jul-16 22:33N 47°34' W 122°22'0 0.0
2014-Jul-16 22:33N 47°34' W 122°22'0 0.0
2014-Jul-16 21:33N 47°34' W 122°22'0 0.0
2014-Jul-16 21:33N 47°34' W 122°22'0 0.0
2014-Jul-16 20:33N 47°34' W 122°22'0 0.0
2014-Jul-16 20:33N 47°34' W 122°22'0 0.0
2014-Jul-16 19:33N 47°34' W 122°22'0 0.0
2014-Jul-16 19:33N 47°34' W 122°22'0 0.0
2014-Jul-16 18:31N 47°34' W 122°22'0 0.0
2014-Jul-16 18:28N 47°34' W 122°22'0 0.0
2014-Jul-16 17:33N 47°34' W 122°22'0 0.0
2014-Jul-16 17:32N 47°34' W 122°22'0 0.0
2014-Jul-16 16:33N 47°34' W 122°22'0 0.0
2014-Jul-16 16:32N 47°34' W 122°22'0 0.0
2014-Jul-16 15:33N 47°34' W 122°22'0 0.0
2014-Jul-16 15:32N 47°34' W 122°22'0 0.0
2014-Jul-16 14:33N 47°34' W 122°22'0 0.0
2014-Jul-16 14:32N 47°34' W 122°22'2 2.0
2014-Jul-16 13:33N 47°36' W 122°23'0 1.3
2014-Jul-16 13:32N 47°36' W 122°23'6 6.5
2014-Jul-16 12:33N 47°42' W 122°28'0 7.7
2014-Jul-16 12:32N 47°42' W 122°28'7 7.5
2014-Jul-16 11:33N 47°49' W 122°28'0 6.0
2014-Jul-16 11:32N 47°49' W 122°28'7 7.1
2014-Jul-16 10:33N 47°56' W 122°32'6 6.3
2014-Jul-16 09:33N 48°00' W 122°38'7 6.1
2014-Jul-16 08:26N 48°07' W 122°41'5 5.1
2014-Jul-16 07:28N 48°10' W 122°47'5 5.2
2014-Jul-16 06:26N 48°11' W 122°55'6 6.7
2014-Jul-16 05:33N 48°12' W 123°04'6 6.4
2014-Jul-16 04:33N 48°10' W 123°13'7 6.6
2014-Jul-16 03:33N 48°08' W 123°22'3 3.5
2014-Jul-16 02:33N 48°08' W 123°28'0 0.0
2014-Jul-16 01:33N 48°08' W 123°28'0 0.0
2014-Jul-16 00:33N 48°08' W 123°28'0 0.0
2014-Jul-15 23:33N 48°08' W 123°28'0 0.0
2014-Jul-15 22:33N 48°08' W 123°28'0 0.0
2014-Jul-15 21:33N 48°08' W 123°28'0 0.0
2014-Jul-15 20:33N 48°08' W 123°28'0 0.0
2014-Jul-15 19:33N 48°08' W 123°28'0 0.0
2014-Jul-15 18:33N 48°08' W 123°28'0 0.0
2014-Jul-15 17:33N 48°08' W 123°28'0 0.0
2014-Jul-15 16:33N 48°08' W 123°28'0 0.0
2014-Jul-15 15:33N 48°08' W 123°28'0 0.0
2014-Jul-15 14:33N 48°08' W 123°28'2 2.2
2014-Jul-15 13:33N 48°08' W 123°24'7 7.0
2014-Jul-15 12:33N 48°10' W 123°14'7 6.7
2014-Jul-15 11:33N 48°13' W 123°05'7 6.9
2014-Jul-15 10:33N 48°12' W 122°55'9 6.9
2014-Jul-15 09:19N 48°09' W 122°43'7 7.9
2014-Jul-15 08:30N 48°04' W 122°38'9 9.5
2014-Jul-15 07:33N 47°56' W 122°30'6 9.2
2014-Jul-15 06:54N 47°51' W 122°27'3 9.4
2014-Jul-15 06:33N 47°47' W 122°26'1 8.8
2014-Jul-15 06:29N 47°47' W 122°26'8 9.0
2014-Jul-15 05:33N 47°39' W 122°27'1 7.9
2014-Jul-15 05:29N 47°38' W 122°26'5 5.1
2014-Jul-15 04:33N 47°34' W 122°22'0 0.0
2014-Jul-14 06:53N 47°34' W 122°22'0 0.1
2014-Jul-14 06:33N 47°34' W 122°22'0 0.0
2014-Jul-14 06:33N 47°34' W 122°22'1 2.7
2014-Jul-14 06:03N 47°36' W 122°22'3 5.3
2014-Jul-14 05:33N 47°37' W 122°25'6 6.4
2014-Jul-14 04:34N 47°43' W 122°28'0 4.2
2014-Jul-14 04:33N 47°43' W 122°28'7 7.1
2014-Jul-14 03:34N 47°50' W 122°28'0 5.2
2014-Jul-14 03:33N 47°50' W 122°28'6 6.4
2014-Jul-14 02:33N 47°56' W 122°32'8 7.7
2014-Jul-14 01:28N 48°03' W 122°39'6 2.1
2014-Jul-13 22:33N 48°06' W 122°48'0 0.0
2014-Jul-13 21:34N 48°06' W 122°48'0 0.0
2014-Jul-13 20:31N 48°06' W 122°48'0 0.0
2014-Jul-13 19:31N 48°06' W 122°48'0 0.0
2014-Jul-13 18:08N 48°06' W 122°48'0 0.0
2014-Jul-13 12:33N 48°05' W 122°47'6 5.4
2014-Jul-13 11:30N 48°05' W 122°39'7 7.3
2014-Jul-13 10:32N 47°59' W 122°35'1 6.8
2014-Jul-13 10:26N 47°58' W 122°34'6 6.9
2014-Jul-13 09:33N 47°54' W 122°28'0 6.9
2014-Jul-13 09:31N 47°53' W 122°28'8 8.0
2014-Jul-13 08:34N 47°46' W 122°26'0 7.2
2014-Jul-13 08:31N 47°46' W 122°26'7 7.7
2014-Jul-13 07:33N 47°38' W 122°27'0 7.4
2014-Jul-13 07:31N 47°38' W 122°26'  

Dump ship's entire track history